Rio Crespo, Brazil
Current Conditions -  °F | °C
As of 6:00 PM on Wednesday 28 Jan 2015 (Local Time) from SBPV Reporting Station
Rain Showers Rain Showers  
Wind Chill: 82°   Ceiling: Unl
Heat Index: 87°   Visibility: 6mi
Dew Point: 72°   Wind: 13mph
Humidity: 70%   Direction: 100°E
Pressure: NA   Gusts: NA
Location:  9.71°S, 62.9°W
Report Text: SBPV 282200Z 10011KT 9999 VCSH SCT020 FEW025TCU SCT080 28/22 Q1008
Loading
Personal Weather Stations






























Interactive Weather Map New forecast layout! Learn more

10-Day Weather Forecast

Advertisements
Track Severe Weather on mobile